sensor_id;sensor_type;location;lat;lon;timestamp;P1;durP1;ratioP1;P2;durP2;ratioP2
2021;SDS011;1015;49.756;6.994;2023-09-19T00:00:55;4.80;;;4.40;;
2021;SDS011;1015;49.756;6.994;2023-09-19T00:03:22;5.67;;;4.80;;
2021;SDS011;1015;49.756;6.994;2023-09-19T00:05:52;8.00;;;4.47;;
2021;SDS011;1015;49.756;6.994;2023-09-19T00:08:20;5.47;;;4.73;;
2021;SDS011;1015;49.756;6.994;2023-09-19T00:10:49;6.10;;;4.83;;
2021;SDS011;1015;49.756;6.994;2023-09-19T00:13:18;4.90;;;4.40;;
2021;SDS011;1015;49.756;6.994;2023-09-19T00:15:46;6.73;;;4.50;;
2021;SDS011;1015;49.756;6.994;2023-09-19T00:18:14;5.40;;;4.33;;
2021;SDS011;1015;49.756;6.994;2023-09-19T00:20:42;5.60;;;4.20;;
2021;SDS011;1015;49.756;6.994;2023-09-19T00:23:14;5.33;;;4.10;;
2021;SDS011;1015;49.756;6.994;2023-09-19T00:25:41;9.40;;;4.87;;
2021;SDS011;1015;49.756;6.994;2023-09-19T00:28:08;5.43;;;4.57;;
2021;SDS011;1015;49.756;6.994;2023-09-19T00:30:36;6.53;;;4.07;;
2021;SDS011;1015;49.756;6.994;2023-09-19T00:33:04;7.27;;;4.83;;
2021;SDS011;1015;49.756;6.994;2023-09-19T00:35:32;4.60;;;4.03;;
2021;SDS011;1015;49.756;6.994;2023-09-19T00:38:00;5.93;;;4.13;;
2021;SDS011;1015;49.756;6.994;2023-09-19T00:40:29;5.63;;;4.50;;
2021;SDS011;1015;49.756;6.994;2023-09-19T00:42:58;6.10;;;4.40;;
2021;SDS011;1015;49.756;6.994;2023-09-19T00:45:26;6.40;;;4.40;;
2021;SDS011;1015;49.756;6.994;2023-09-19T00:47:53;6.83;;;4.50;;
2021;SDS011;1015;49.756;6.994;2023-09-19T00:50:22;6.27;;;4.33;;
2021;SDS011;1015;49.756;6.994;2023-09-19T00:52:50;6.37;;;4.40;;
2021;SDS011;1015;49.756;6.994;2023-09-19T00:55:21;7.40;;;5.00;;
2021;SDS011;1015;49.756;6.994;2023-09-19T00:57:49;6.43;;;4.70;;
2021;SDS011;1015;49.756;6.994;2023-09-19T01:00:17;4.87;;;4.37;;
2021;SDS011;1015;49.756;6.994;2023-09-19T01:02:46;4.97;;;4.40;;
2021;SDS011;1015;49.756;6.994;2023-09-19T01:05:13;4.77;;;4.20;;
2021;SDS011;1015;49.756;6.994;2023-09-19T01:07:41;5.60;;;4.37;;
2021;SDS011;1015;49.756;6.994;2023-09-19T01:10:10;6.40;;;4.50;;
2021;SDS011;1015;49.756;6.994;2023-09-19T01:12:43;5.20;;;4.37;;
2021;SDS011;1015;49.756;6.994;2023-09-19T01:15:15;5.63;;;4.47;;
2021;SDS011;1015;49.756;6.994;2023-09-19T01:17:45;9.20;;;5.30;;
2021;SDS011;1015;49.756;6.994;2023-09-19T01:20:18;6.40;;;4.63;;
2021;SDS011;1015;49.756;6.994;2023-09-19T01:22:51;5.60;;;4.33;;
2021;SDS011;1015;49.756;6.994;2023-09-19T01:25:28;11.00;;;4.53;;
2021;SDS011;1015;49.756;6.994;2023-09-19T01:28:06;5.80;;;4.60;;
2021;SDS011;1015;49.756;6.994;2023-09-19T01:30:39;4.53;;;4.13;;
2021;SDS011;1015;49.756;6.994;2023-09-19T01:33:08;7.50;;;4.30;;
2021;SDS011;1015;49.756;6.994;2023-09-19T01:35:37;5.80;;;4.40;;
2021;SDS011;1015;49.756;6.994;2023-09-19T01:38:04;6.47;;;4.53;;
2021;SDS011;1015;49.756;6.994;2023-09-19T01:40:35;4.80;;;4.20;;
2021;SDS011;1015;49.756;6.994;2023-09-19T01:43:05;7.03;;;4.80;;
2021;SDS011;1015;49.756;6.994;2023-09-19T01:45:37;6.50;;;4.40;;
2021;SDS011;1015;49.756;6.994;2023-09-19T01:48:13;5.27;;;4.60;;
2021;SDS011;1015;49.756;6.994;2023-09-19T01:50:47;7.97;;;4.40;;
2021;SDS011;1015;49.756;6.994;2023-09-19T01:53:19;6.13;;;4.30;;
2021;SDS011;1015;49.756;6.994;2023-09-19T01:55:49;5.30;;;4.37;;
2021;SDS011;1015;49.756;6.994;2023-09-19T01:58:18;5.40;;;4.13;;
2021;SDS011;1015;49.756;6.994;2023-09-19T02:00:48;7.07;;;4.60;;
2021;SDS011;1015;49.756;6.994;2023-09-19T02:03:17;6.53;;;4.43;;
2021;SDS011;1015;49.756;6.994;2023-09-19T02:05:48;7.60;;;4.50;;
2021;SDS011;1015;49.756;6.994;2023-09-19T02:08:16;7.83;;;4.77;;
2021;SDS011;1015;49.756;6.994;2023-09-19T02:10:44;6.00;;;5.00;;
2021;SDS011;1015;49.756;6.994;2023-09-19T02:13:14;12.10;;;4.70;;
2021;SDS011;1015;49.756;6.994;2023-09-19T02:15:41;6.50;;;4.60;;
2021;SDS011;1015;49.756;6.994;2023-09-19T02:18:11;7.30;;;4.30;;
2021;SDS011;1015;49.756;6.994;2023-09-19T02:20:39;7.03;;;4.57;;
2021;SDS011;1015;49.756;6.994;2023-09-19T02:23:06;10.93;;;4.47;;
2021;SDS011;1015;49.756;6.994;2023-09-19T02:25:34;7.00;;;4.17;;
2021;SDS011;1015;49.756;6.994;2023-09-19T02:28:03;5.63;;;4.20;;
2021;SDS011;1015;49.756;6.994;2023-09-19T02:30:30;9.73;;;4.40;;
2021;SDS011;1015;49.756;6.994;2023-09-19T02:32:57;5.83;;;3.93;;
2021;SDS011;1015;49.756;6.994;2023-09-19T02:35:27;6.47;;;4.33;;
2021;SDS011;1015;49.756;6.994;2023-09-19T02:37:58;4.67;;;4.10;;
2021;SDS011;1015;49.756;6.994;2023-09-19T02:40:25;6.10;;;4.60;;
2021;SDS011;1015;49.756;6.994;2023-09-19T02:42:53;6.83;;;4.20;;
2021;SDS011;1015;49.756;6.994;2023-09-19T02:45:21;6.63;;;4.10;;
2021;SDS011;1015;49.756;6.994;2023-09-19T02:47:48;4.73;;;4.33;;
2021;SDS011;1015;49.756;6.994;2023-09-19T02:50:16;5.67;;;4.37;;
2021;SDS011;1015;49.756;6.994;2023-09-19T02:52:44;7.37;;;4.00;;
2021;SDS011;1015;49.756;6.994;2023-09-19T02:55:13;9.33;;;4.70;;
2021;SDS011;1015;49.756;6.994;2023-09-19T02:57:44;6.30;;;3.97;;
2021;SDS011;1015;49.756;6.994;2023-09-19T03:00:12;8.20;;;4.17;;
2021;SDS011;1015;49.756;6.994;2023-09-19T03:02:39;5.00;;;4.50;;
2021;SDS011;1015;49.756;6.994;2023-09-19T03:05:07;6.50;;;4.43;;
2021;SDS011;1015;49.756;6.994;2023-09-19T03:07:36;7.37;;;4.80;;
2021;SDS011;1015;49.756;6.994;2023-09-19T03:10:05;5.67;;;4.20;;
2021;SDS011;1015;49.756;6.994;2023-09-19T03:12:33;6.70;;;4.60;;
2021;SDS011;1015;49.756;6.994;2023-09-19T03:15:00;8.53;;;4.80;;
2021;SDS011;1015;49.756;6.994;2023-09-19T03:17:29;11.00;;;4.40;;
2021;SDS011;1015;49.756;6.994;2023-09-19T03:19:57;6.80;;;4.60;;
2021;SDS011;1015;49.756;6.994;2023-09-19T03:22:26;7.47;;;4.60;;
2021;SDS011;1015;49.756;6.994;2023-09-19T03:24:54;6.60;;;4.20;;
2021;SDS011;1015;49.756;6.994;2023-09-19T03:27:22;4.93;;;4.33;;
2021;SDS011;1015;49.756;6.994;2023-09-19T03:29:49;6.07;;;4.57;;
2021;SDS011;1015;49.756;6.994;2023-09-19T03:32:17;5.80;;;4.30;;
2021;SDS011;1015;49.756;6.994;2023-09-19T03:34:44;5.63;;;4.23;;
2021;SDS011;1015;49.756;6.994;2023-09-19T03:37:13;7.30;;;3.73;;
2021;SDS011;1015;49.756;6.994;2023-09-19T03:39:41;6.13;;;3.80;;
2021;SDS011;1015;49.756;6.994;2023-09-19T03:42:08;8.63;;;3.80;;
2021;SDS011;1015;49.756;6.994;2023-09-19T03:44:36;5.50;;;3.83;;
2021;SDS011;1015;49.756;6.994;2023-09-19T03:47:03;5.07;;;3.87;;
2021;SDS011;1015;49.756;6.994;2023-09-19T03:49:32;3.80;;;3.40;;
2021;SDS011;1015;49.756;6.994;2023-09-19T03:51:59;5.70;;;3.80;;
2021;SDS011;1015;49.756;6.994;2023-09-19T03:54:26;5.37;;;4.00;;
2021;SDS011;1015;49.756;6.994;2023-09-19T03:56:53;4.90;;;3.70;;
2021;SDS011;1015;49.756;6.994;2023-09-19T03:59:20;4.97;;;3.60;;
2021;SDS011;1015;49.756;6.994;2023-09-19T04:01:49;7.37;;;3.80;;
2021;SDS011;1015;49.756;6.994;2023-09-19T04:04:20;4.90;;;3.50;;
2021;SDS011;1015;49.756;6.994;2023-09-19T04:06:49;7.67;;;4.27;;
2021;SDS011;1015;49.756;6.994;2023-09-19T04:09:17;5.47;;;3.97;;
2021;SDS011;1015;49.756;6.994;2023-09-19T04:11:44;7.93;;;4.00;;
2021;SDS011;1015;49.756;6.994;2023-09-19T04:14:11;7.90;;;3.90;;
2021;SDS011;1015;49.756;6.994;2023-09-19T04:16:38;7.53;;;4.50;;
2021;SDS011;1015;49.756;6.994;2023-09-19T04:19:07;4.03;;;3.60;;
2021;SDS011;1015;49.756;6.994;2023-09-19T04:21:34;9.23;;;4.37;;
2021;SDS011;1015;49.756;6.994;2023-09-19T04:24:01;4.70;;;3.70;;
2021;SDS011;1015;49.756;6.994;2023-09-19T04:26:28;7.90;;;4.00;;
2021;SDS011;1015;49.756;6.994;2023-09-19T04:28:55;6.30;;;3.60;;
2021;SDS011;1015;49.756;6.994;2023-09-19T04:31:22;6.03;;;4.10;;
2021;SDS011;1015;49.756;6.994;2023-09-19T04:33:49;4.20;;;3.80;;
2021;SDS011;1015;49.756;6.994;2023-09-19T04:36:17;4.97;;;3.37;;
2021;SDS011;1015;49.756;6.994;2023-09-19T04:38:46;6.50;;;3.37;;
2021;SDS011;1015;49.756;6.994;2023-09-19T04:41:13;6.50;;;3.80;;
2021;SDS011;1015;49.756;6.994;2023-09-19T04:43:40;5.60;;;3.57;;
2021;SDS011;1015;49.756;6.994;2023-09-19T04:46:07;8.97;;;3.57;;
2021;SDS011;1015;49.756;6.994;2023-09-19T04:48:34;4.37;;;3.60;;
2021;SDS011;1015;49.756;6.994;2023-09-19T04:51:03;8.83;;;4.10;;
2021;SDS011;1015;49.756;6.994;2023-09-19T04:53:31;5.37;;;3.70;;
2021;SDS011;1015;49.756;6.994;2023-09-19T04:55:58;4.60;;;4.10;;
2021;SDS011;1015;49.756;6.994;2023-09-19T04:58:25;5.23;;;3.40;;
2021;SDS011;1015;49.756;6.994;2023-09-19T05:00:52;3.93;;;3.53;;
2021;SDS011;1015;49.756;6.994;2023-09-19T05:03:20;5.83;;;3.37;;
2021;SDS011;1015;49.756;6.994;2023-09-19T05:05:47;6.37;;;3.57;;
2021;SDS011;1015;49.756;6.994;2023-09-19T05:08:15;5.03;;;3.73;;
2021;SDS011;1015;49.756;6.994;2023-09-19T05:10:43;4.80;;;3.60;;
2021;SDS011;1015;49.756;6.994;2023-09-19T05:13:10;4.17;;;3.37;;
2021;SDS011;1015;49.756;6.994;2023-09-19T05:15:38;4.63;;;3.53;;
2021;SDS011;1015;49.756;6.994;2023-09-19T05:18:05;6.00;;;3.53;;
2021;SDS011;1015;49.756;6.994;2023-09-19T05:20:32;7.23;;;3.97;;
2021;SDS011;1015;49.756;6.994;2023-09-19T05:23:02;6.23;;;3.50;;
2021;SDS011;1015;49.756;6.994;2023-09-19T05:25:32;5.17;;;3.93;;
2021;SDS011;1015;49.756;6.994;2023-09-19T05:28:03;9.60;;;4.00;;
2021;SDS011;1015;49.756;6.994;2023-09-19T05:30:31;10.20;;;4.33;;
2021;SDS011;1015;49.756;6.994;2023-09-19T05:32:58;5.60;;;3.70;;
2021;SDS011;1015;49.756;6.994;2023-09-19T05:35:25;6.90;;;3.80;;
2021;SDS011;1015;49.756;6.994;2023-09-19T05:37:53;7.47;;;4.13;;
2021;SDS011;1015;49.756;6.994;2023-09-19T05:40:21;5.67;;;3.57;;
2021;SDS011;1015;49.756;6.994;2023-09-19T05:42:48;5.07;;;3.60;;
2021;SDS011;1015;49.756;6.994;2023-09-19T05:45:17;6.70;;;4.40;;
2021;SDS011;1015;49.756;6.994;2023-09-19T05:47:47;9.40;;;4.53;;
2021;SDS011;1015;49.756;6.994;2023-09-19T05:50:15;7.10;;;3.77;;
2021;SDS011;1015;49.756;6.994;2023-09-19T05:52:43;7.80;;;6.13;;
2021;SDS011;1015;49.756;6.994;2023-09-19T05:55:11;9.73;;;4.20;;
2021;SDS011;1015;49.756;6.994;2023-09-19T05:57:38;5.93;;;3.87;;
2021;SDS011;1015;49.756;6.994;2023-09-19T06:00:05;6.20;;;3.77;;
2021;SDS011;1015;49.756;6.994;2023-09-19T06:02:37;6.10;;;3.63;;
2021;SDS011;1015;49.756;6.994;2023-09-19T06:05:05;7.10;;;3.30;;
2021;SDS011;1015;49.756;6.994;2023-09-19T06:07:35;5.93;;;3.73;;
2021;SDS011;1015;49.756;6.994;2023-09-19T06:10:02;7.30;;;3.53;;
2021;SDS011;1015;49.756;6.994;2023-09-19T06:12:31;6.50;;;3.70;;
2021;SDS011;1015;49.756;6.994;2023-09-19T06:15:02;5.00;;;3.60;;
2021;SDS011;1015;49.756;6.994;2023-09-19T06:17:30;7.30;;;3.90;;
2021;SDS011;1015;49.756;6.994;2023-09-19T06:19:59;7.50;;;3.90;;
2021;SDS011;1015;49.756;6.994;2023-09-19T06:22:29;4.80;;;3.77;;
2021;SDS011;1015;49.756;6.994;2023-09-19T06:24:56;8.37;;;3.47;;
2021;SDS011;1015;49.756;6.994;2023-09-19T06:27:23;5.80;;;3.50;;
2021;SDS011;1015;49.756;6.994;2023-09-19T06:29:51;9.47;;;4.00;;
2021;SDS011;1015;49.756;6.994;2023-09-19T06:32:18;6.57;;;3.20;;
2021;SDS011;1015;49.756;6.994;2023-09-19T06:34:45;6.73;;;3.30;;
2021;SDS011;1015;49.756;6.994;2023-09-19T06:37:13;10.53;;;4.07;;
2021;SDS011;1015;49.756;6.994;2023-09-19T06:39:40;6.57;;;3.50;;
2021;SDS011;1015;49.756;6.994;2023-09-19T06:42:08;9.13;;;3.67;;
2021;SDS011;1015;49.756;6.994;2023-09-19T06:44:36;7.70;;;3.53;;
2021;SDS011;1015;49.756;6.994;2023-09-19T06:47:03;7.57;;;3.40;;
2021;SDS011;1015;49.756;6.994;2023-09-19T06:49:31;7.60;;;3.40;;
2021;SDS011;1015;49.756;6.994;2023-09-19T06:51:59;6.60;;;3.70;;
2021;SDS011;1015;49.756;6.994;2023-09-19T06:54:27;6.80;;;3.20;;
2021;SDS011;1015;49.756;6.994;2023-09-19T06:56:56;6.13;;;3.57;;
2021;SDS011;1015;49.756;6.994;2023-09-19T06:59:23;6.53;;;3.63;;
2021;SDS011;1015;49.756;6.994;2023-09-19T07:01:50;11.00;;;3.77;;
2021;SDS011;1015;49.756;6.994;2023-09-19T07:04:17;8.57;;;3.77;;
2021;SDS011;1015;49.756;6.994;2023-09-19T07:06:48;10.90;;;3.20;;
2021;SDS011;1015;49.756;6.994;2023-09-19T07:09:16;7.83;;;3.27;;
2021;SDS011;1015;49.756;6.994;2023-09-19T07:11:46;8.03;;;3.00;;
2021;SDS011;1015;49.756;6.994;2023-09-19T07:14:13;5.87;;;3.50;;
2021;SDS011;1015;49.756;6.994;2023-09-19T07:16:40;5.90;;;2.83;;
2021;SDS011;1015;49.756;6.994;2023-09-19T07:19:09;7.23;;;3.10;;
2021;SDS011;1015;49.756;6.994;2023-09-19T07:21:36;5.53;;;3.40;;
2021;SDS011;1015;49.756;6.994;2023-09-19T07:24:04;5.83;;;3.10;;
2021;SDS011;1015;49.756;6.994;2023-09-19T07:26:33;7.13;;;3.57;;
2021;SDS011;1015;49.756;6.994;2023-09-19T07:29:01;6.80;;;3.10;;
2021;SDS011;1015;49.756;6.994;2023-09-19T07:31:28;6.73;;;3.10;;
2021;SDS011;1015;49.756;6.994;2023-09-19T07:33:56;6.23;;;2.73;;
2021;SDS011;1015;49.756;6.994;2023-09-19T07:36:23;7.90;;;3.07;;
2021;SDS011;1015;49.756;6.994;2023-09-19T07:38:50;6.30;;;3.00;;
2021;SDS011;1015;49.756;6.994;2023-09-19T07:41:17;9.70;;;2.97;;
2021;SDS011;1015;49.756;6.994;2023-09-19T07:43:46;6.87;;;3.20;;
2021;SDS011;1015;49.756;6.994;2023-09-19T07:46:14;7.93;;;3.10;;
2021;SDS011;1015;49.756;6.994;2023-09-19T07:48:41;8.50;;;3.10;;
2021;SDS011;1015;49.756;6.994;2023-09-19T07:51:13;11.03;;;3.10;;
2021;SDS011;1015;49.756;6.994;2023-09-19T07:53:41;10.80;;;3.40;;
2021;SDS011;1015;49.756;6.994;2023-09-19T07:56:09;5.57;;;3.00;;
2021;SDS011;1015;49.756;6.994;2023-09-19T07:58:39;7.30;;;3.10;;
2021;SDS011;1015;49.756;6.994;2023-09-19T08:01:09;7.10;;;3.10;;
2021;SDS011;1015;49.756;6.994;2023-09-19T08:03:39;4.23;;;2.40;;
2021;SDS011;1015;49.756;6.994;2023-09-19T08:06:08;4.70;;;3.00;;
2021;SDS011;1015;49.756;6.994;2023-09-19T08:08:36;5.10;;;3.07;;
2021;SDS011;1015;49.756;6.994;2023-09-19T08:11:03;14.00;;;4.33;;
2021;SDS011;1015;49.756;6.994;2023-09-19T08:13:35;8.17;;;3.17;;
2021;SDS011;1015;49.756;6.994;2023-09-19T08:16:06;8.50;;;3.17;;
2021;SDS011;1015;49.756;6.994;2023-09-19T08:18:33;8.70;;;3.50;;
2021;SDS011;1015;49.756;6.994;2023-09-19T08:21:02;5.37;;;3.23;;
2021;SDS011;1015;49.756;6.994;2023-09-19T08:23:29;6.60;;;3.27;;
2021;SDS011;1015;49.756;6.994;2023-09-19T08:25:57;7.50;;;3.27;;
2021;SDS011;1015;49.756;6.994;2023-09-19T08:28:27;6.70;;;3.40;;
2021;SDS011;1015;49.756;6.994;2023-09-19T08:30:55;7.93;;;3.10;;
2021;SDS011;1015;49.756;6.994;2023-09-19T08:33:23;6.30;;;3.20;;
2021;SDS011;1015;49.756;6.994;2023-09-19T08:35:50;6.90;;;2.90;;
2021;SDS011;1015;49.756;6.994;2023-09-19T08:38:18;6.90;;;3.43;;
2021;SDS011;1015;49.756;6.994;2023-09-19T08:40:46;4.70;;;3.00;;
2021;SDS011;1015;49.756;6.994;2023-09-19T08:43:13;8.43;;;3.00;;
2021;SDS011;1015;49.756;6.994;2023-09-19T08:45:40;5.83;;;2.70;;
2021;SDS011;1015;49.756;6.994;2023-09-19T08:50:55;5.80;;;2.63;;
2021;SDS011;1015;49.756;6.994;2023-09-19T08:53:28;7.93;;;3.27;;
2021;SDS011;1015;49.756;6.994;2023-09-19T08:55:57;5.07;;;2.50;;
2021;SDS011;1015;49.756;6.994;2023-09-19T08:58:30;4.13;;;2.60;;
2021;SDS011;1015;49.756;6.994;2023-09-19T09:00:58;6.10;;;2.63;;
2021;SDS011;1015;49.756;6.994;2023-09-19T09:03:27;4.97;;;2.53;;
2021;SDS011;1015;49.756;6.994;2023-09-19T09:05:59;6.13;;;2.60;;
2021;SDS011;1015;49.756;6.994;2023-09-19T09:08:27;11.30;;;2.50;;
2021;SDS011;1015;49.756;6.994;2023-09-19T09:10:55;5.53;;;2.33;;
2021;SDS011;1015;49.756;6.994;2023-09-19T09:13:23;5.63;;;2.50;;
2021;SDS011;1015;49.756;6.994;2023-09-19T09:15:51;5.97;;;2.57;;
2021;SDS011;1015;49.756;6.994;2023-09-19T09:18:19;5.23;;;2.20;;
2021;SDS011;1015;49.756;6.994;2023-09-19T09:20:47;4.27;;;2.00;;
2021;SDS011;1015;49.756;6.994;2023-09-19T09:23:14;4.50;;;2.43;;
2021;SDS011;1015;49.756;6.994;2023-09-19T09:25:50;4.73;;;2.20;;
2021;SDS011;1015;49.756;6.994;2023-09-19T09:28:21;4.33;;;2.13;;
2021;SDS011;1015;49.756;6.994;2023-09-19T09:30:49;6.60;;;2.03;;
2021;SDS011;1015;49.756;6.994;2023-09-19T09:33:16;4.33;;;2.10;;
2021;SDS011;1015;49.756;6.994;2023-09-19T09:35:53;4.83;;;1.67;;
2021;SDS011;1015;49.756;6.994;2023-09-19T09:38:22;5.27;;;1.90;;
2021;SDS011;1015;49.756;6.994;2023-09-19T09:40:54;5.20;;;2.30;;
2021;SDS011;1015;49.756;6.994;2023-09-19T09:43:30;6.90;;;2.70;;
2021;SDS011;1015;49.756;6.994;2023-09-19T09:46:10;6.93;;;2.20;;
2021;SDS011;1015;49.756;6.994;2023-09-19T09:48:56;5.40;;;2.40;;
2021;SDS011;1015;49.756;6.994;2023-09-19T09:51:37;5.67;;;1.80;;
2021;SDS011;1015;49.756;6.994;2023-09-19T09:54:11;4.60;;;1.97;;
2021;SDS011;1015;49.756;6.994;2023-09-19T09:56:53;4.77;;;2.23;;
2021;SDS011;1015;49.756;6.994;2023-09-19T09:59:27;4.73;;;1.97;;
2021;SDS011;1015;49.756;6.994;2023-09-19T10:02:11;3.90;;;1.87;;
2021;SDS011;1015;49.756;6.994;2023-09-19T10:04:45;3.90;;;1.70;;
2021;SDS011;1015;49.756;6.994;2023-09-19T10:07:24;3.90;;;1.90;;
2021;SDS011;1015;49.756;6.994;2023-09-19T10:09:53;3.93;;;1.50;;
2021;SDS011;1015;49.756;6.994;2023-09-19T10:12:30;4.87;;;2.00;;
2021;SDS011;1015;49.756;6.994;2023-09-19T10:14:58;2.13;;;1.60;;
2021;SDS011;1015;49.756;6.994;2023-09-19T10:17:27;5.00;;;1.97;;
2021;SDS011;1015;49.756;6.994;2023-09-19T10:19:55;3.43;;;1.70;;
2021;SDS011;1015;49.756;6.994;2023-09-19T10:22:23;5.60;;;1.70;;
2021;SDS011;1015;49.756;6.994;2023-09-19T10:24:52;7.33;;;2.30;;
2021;SDS011;1015;49.756;6.994;2023-09-19T10:27:20;4.90;;;2.20;;
2021;SDS011;1015;49.756;6.994;2023-09-19T10:29:49;3.80;;;2.20;;
2021;SDS011;1015;49.756;6.994;2023-09-19T10:32:19;4.50;;;2.00;;
2021;SDS011;1015;49.756;6.994;2023-09-19T10:34:46;7.47;;;2.03;;
2021;SDS011;1015;49.756;6.994;2023-09-19T10:37:13;3.87;;;1.90;;
2021;SDS011;1015;49.756;6.994;2023-09-19T10:39:45;2.80;;;1.70;;
2021;SDS011;1015;49.756;6.994;2023-09-19T10:42:13;5.30;;;1.67;;
2021;SDS011;1015;49.756;6.994;2023-09-19T10:44:42;4.50;;;2.07;;
2021;SDS011;1015;49.756;6.994;2023-09-19T10:47:11;5.17;;;2.10;;
2021;SDS011;1015;49.756;6.994;2023-09-19T10:49:42;5.70;;;2.10;;
2021;SDS011;1015;49.756;6.994;2023-09-19T10:52:11;3.30;;;1.60;;
2021;SDS011;1015;49.756;6.994;2023-09-19T10:54:43;4.77;;;2.10;;
2021;SDS011;1015;49.756;6.994;2023-09-19T10:57:18;2.23;;;1.60;;
2021;SDS011;1015;49.756;6.994;2023-09-19T11:00:00;4.03;;;2.00;;
2021;SDS011;1015;49.756;6.994;2023-09-19T11:05:31;3.53;;;2.17;;
2021;SDS011;1015;49.756;6.994;2023-09-19T11:07:59;4.63;;;1.80;;
2021;SDS011;1015;49.756;6.994;2023-09-19T11:10:44;3.63;;;1.73;;
2021;SDS011;1015;49.756;6.994;2023-09-19T11:16:03;1.90;;;1.50;;
2021;SDS011;1015;49.756;6.994;2023-09-19T11:26:48;4.20;;;1.57;;
2021;SDS011;1015;49.756;6.994;2023-09-19T11:29:26;4.50;;;1.80;;
2021;SDS011;1015;49.756;6.994;2023-09-19T11:31:54;4.30;;;2.03;;
2021;SDS011;1015;49.756;6.994;2023-09-19T11:34:45;6.97;;;1.87;;
2021;SDS011;1015;49.756;6.994;2023-09-19T11:40:07;6.70;;;1.77;;
2021;SDS011;1015;49.756;6.994;2023-09-19T11:42:43;4.13;;;1.50;;
2021;SDS011;1015;49.756;6.994;2023-09-19T11:47:56;3.03;;;1.60;;
2021;SDS011;1015;49.756;6.994;2023-09-19T11:50:25;2.93;;;1.63;;
2021;SDS011;1015;49.756;6.994;2023-09-19T11:52:52;1.83;;;1.53;;
2021;SDS011;1015;49.756;6.994;2023-09-19T11:55:20;4.73;;;1.70;;
2021;SDS011;1015;49.756;6.994;2023-09-19T11:57:49;2.97;;;1.70;;
2021;SDS011;1015;49.756;6.994;2023-09-19T12:00:17;5.93;;;1.90;;
2021;SDS011;1015;49.756;6.994;2023-09-19T12:02:46;3.20;;;1.57;;
2021;SDS011;1015;49.756;6.994;2023-09-19T12:05:13;3.93;;;1.83;;
2021;SDS011;1015;49.756;6.994;2023-09-19T12:07:42;3.87;;;1.67;;
2021;SDS011;1015;49.756;6.994;2023-09-19T12:10:11;2.53;;;1.40;;
2021;SDS011;1015;49.756;6.994;2023-09-19T12:12:45;3.83;;;1.60;;
2021;SDS011;1015;49.756;6.994;2023-09-19T12:15:16;2.60;;;1.63;;
2021;SDS011;1015;49.756;6.994;2023-09-19T12:17:53;4.20;;;1.67;;
2021;SDS011;1015;49.756;6.994;2023-09-19T12:20:21;3.80;;;1.80;;
2021;SDS011;1015;49.756;6.994;2023-09-19T12:22:48;2.27;;;1.40;;
2021;SDS011;1015;49.756;6.994;2023-09-19T12:25:16;1.53;;;1.13;;
2021;SDS011;1015;49.756;6.994;2023-09-19T12:27:45;5.03;;;1.60;;
2021;SDS011;1015;49.756;6.994;2023-09-19T12:30:13;2.17;;;1.40;;
2021;SDS011;1015;49.756;6.994;2023-09-19T12:32:43;2.30;;;1.40;;
2021;SDS011;1015;49.756;6.994;2023-09-19T12:35:11;3.73;;;1.63;;
2021;SDS011;1015;49.756;6.994;2023-09-19T12:37:54;4.50;;;1.67;;
2021;SDS011;1015;49.756;6.994;2023-09-19T12:40:22;3.90;;;1.70;;
2021;SDS011;1015;49.756;6.994;2023-09-19T12:42:52;3.03;;;1.43;;
2021;SDS011;1015;49.756;6.994;2023-09-19T12:45:20;3.53;;;1.50;;
2021;SDS011;1015;49.756;6.994;2023-09-19T12:50:34;3.10;;;1.50;;
2021;SDS011;1015;49.756;6.994;2023-09-19T12:53:03;2.07;;;1.10;;
2021;SDS011;1015;49.756;6.994;2023-09-19T12:55:30;4.10;;;1.50;;
2021;SDS011;1015;49.756;6.994;2023-09-19T12:57:59;4.20;;;1.60;;
2021;SDS011;1015;49.756;6.994;2023-09-19T13:00:33;6.33;;;1.83;;
2021;SDS011;1015;49.756;6.994;2023-09-19T13:05:55;3.80;;;1.50;;
2021;SDS011;1015;49.756;6.994;2023-09-19T13:08:26;2.87;;;1.57;;
2021;SDS011;1015;49.756;6.994;2023-09-19T13:10:59;2.00;;;1.43;;
2021;SDS011;1015;49.756;6.994;2023-09-19T13:13:27;3.70;;;1.70;;
2021;SDS011;1015;49.756;6.994;2023-09-19T13:15:54;3.97;;;1.40;;
2021;SDS011;1015;49.756;6.994;2023-09-19T13:18:23;5.70;;;1.70;;
2021;SDS011;1015;49.756;6.994;2023-09-19T13:21:06;3.53;;;1.60;;
2021;SDS011;1015;49.756;6.994;2023-09-19T13:23:35;2.53;;;1.47;;
2021;SDS011;1015;49.756;6.994;2023-09-19T13:26:03;4.00;;;1.63;;
2021;SDS011;1015;49.756;6.994;2023-09-19T13:28:31;3.90;;;1.80;;
2021;SDS011;1015;49.756;6.994;2023-09-19T13:30:58;3.20;;;1.57;;
2021;SDS011;1015;49.756;6.994;2023-09-19T13:33:25;5.73;;;1.90;;
2021;SDS011;1015;49.756;6.994;2023-09-19T13:35:52;1.83;;;1.50;;
2021;SDS011;1015;49.756;6.994;2023-09-19T13:38:21;3.57;;;1.30;;
2021;SDS011;1015;49.756;6.994;2023-09-19T13:40:48;2.40;;;1.47;;
2021;SDS011;1015;49.756;6.994;2023-09-19T13:43:17;4.13;;;1.60;;
2021;SDS011;1015;49.756;6.994;2023-09-19T13:45:45;2.20;;;1.57;;
2021;SDS011;1015;49.756;6.994;2023-09-19T13:48:12;2.07;;;1.60;;
2021;SDS011;1015;49.756;6.994;2023-09-19T13:50:40;2.77;;;1.87;;
2021;SDS011;1015;49.756;6.994;2023-09-19T13:53:07;2.23;;;1.40;;
2021;SDS011;1015;49.756;6.994;2023-09-19T13:55:35;2.50;;;1.30;;
2021;SDS011;1015;49.756;6.994;2023-09-19T13:58:03;2.50;;;1.47;;
2021;SDS011;1015;49.756;6.994;2023-09-19T14:00:31;2.03;;;1.53;;
2021;SDS011;1015;49.756;6.994;2023-09-19T14:02:59;2.50;;;1.50;;
2021;SDS011;1015;49.756;6.994;2023-09-19T14:05:27;1.50;;;1.40;;
2021;SDS011;1015;49.756;6.994;2023-09-19T14:07:55;1.90;;;1.27;;
2021;SDS011;1015;49.756;6.994;2023-09-19T14:10:22;2.20;;;1.40;;
2021;SDS011;1015;49.756;6.994;2023-09-19T14:12:51;1.63;;;1.20;;
2021;SDS011;1015;49.756;6.994;2023-09-19T14:15:18;2.50;;;1.50;;
2021;SDS011;1015;49.756;6.994;2023-09-19T14:17:54;1.87;;;1.43;;
2021;SDS011;1015;49.756;6.994;2023-09-19T14:20:21;2.10;;;1.50;;
2021;SDS011;1015;49.756;6.994;2023-09-19T14:22:49;1.60;;;1.50;;
2021;SDS011;1015;49.756;6.994;2023-09-19T14:25:16;1.77;;;1.60;;
2021;SDS011;1015;49.756;6.994;2023-09-19T14:27:43;2.30;;;1.33;;
2021;SDS011;1015;49.756;6.994;2023-09-19T14:30:12;2.77;;;1.50;;
2021;SDS011;1015;49.756;6.994;2023-09-19T14:32:39;2.10;;;1.40;;
2021;SDS011;1015;49.756;6.994;2023-09-19T14:35:07;2.50;;;1.60;;
2021;SDS011;1015;49.756;6.994;2023-09-19T14:37:35;3.17;;;1.33;;
2021;SDS011;1015;49.756;6.994;2023-09-19T14:40:05;2.13;;;1.17;;
2021;SDS011;1015;49.756;6.994;2023-09-19T14:42:33;2.27;;;1.50;;
2021;SDS011;1015;49.756;6.994;2023-09-19T14:45:03;2.07;;;1.67;;
2021;SDS011;1015;49.756;6.994;2023-09-19T14:47:31;3.27;;;1.73;;
2021;SDS011;1015;49.756;6.994;2023-09-19T14:50:00;3.60;;;1.30;;
2021;SDS011;1015;49.756;6.994;2023-09-19T14:52:27;2.50;;;1.30;;
2021;SDS011;1015;49.756;6.994;2023-09-19T14:54:54;2.50;;;1.50;;
2021;SDS011;1015;49.756;6.994;2023-09-19T14:57:21;1.10;;;1.00;;
2021;SDS011;1015;49.756;6.994;2023-09-19T14:59:49;3.00;;;1.40;;
2021;SDS011;1015;49.756;6.994;2023-09-19T15:02:16;3.73;;;1.50;;
2021;SDS011;1015;49.756;6.994;2023-09-19T15:04:45;1.77;;;1.30;;
2021;SDS011;1015;49.756;6.994;2023-09-19T15:07:13;2.00;;;1.33;;
2021;SDS011;1015;49.756;6.994;2023-09-19T15:09:40;2.40;;;1.60;;
2021;SDS011;1015;49.756;6.994;2023-09-19T15:12:08;3.17;;;1.40;;
2021;SDS011;1015;49.756;6.994;2023-09-19T15:14:39;2.43;;;1.50;;
2021;SDS011;1015;49.756;6.994;2023-09-19T15:17:06;1.87;;;1.77;;
2021;SDS011;1015;49.756;6.994;2023-09-19T15:19:33;2.60;;;1.73;;
2021;SDS011;1015;49.756;6.994;2023-09-19T15:22:03;2.63;;;1.57;;
2021;SDS011;1015;49.756;6.994;2023-09-19T15:24:32;2.43;;;1.40;;
2021;SDS011;1015;49.756;6.994;2023-09-19T15:26:59;2.37;;;1.50;;
2021;SDS011;1015;49.756;6.994;2023-09-19T15:29:26;3.23;;;1.63;;
2021;SDS011;1015;49.756;6.994;2023-09-19T15:31:54;2.03;;;1.67;;
2021;SDS011;1015;49.756;6.994;2023-09-19T15:34:27;3.30;;;1.63;;
2021;SDS011;1015;49.756;6.994;2023-09-19T15:36:55;1.97;;;1.53;;
2021;SDS011;1015;49.756;6.994;2023-09-19T15:39:23;2.30;;;1.53;;
2021;SDS011;1015;49.756;6.994;2023-09-19T15:41:50;2.67;;;1.47;;
2021;SDS011;1015;49.756;6.994;2023-09-19T15:44:19;2.60;;;1.50;;
2021;SDS011;1015;49.756;6.994;2023-09-19T15:46:46;1.80;;;1.40;;
2021;SDS011;1015;49.756;6.994;2023-09-19T15:49:13;2.67;;;1.80;;
2021;SDS011;1015;49.756;6.994;2023-09-19T15:51:40;3.33;;;1.70;;
2021;SDS011;1015;49.756;6.994;2023-09-19T15:54:09;2.60;;;1.33;;